WetterOnline ( https://www.wetteronline.ch )

Wetter aktuell Regensburg

Aktuelles Wetter: Regensburg/Oberhub (371m)

6-stündlich | Neueste Meldungen
Ortszeit Temperatur Wetter
Mi, 24.04. 2:00 12.3° C bedeckt
Di, 23.04. 20:00 16.3° C bewölkt
Di, 23.04. 14:00 19.4° C bedeckt
Di, 23.04. 8:00 10.5° C wolkig
Di, 23.04. 2:00 9.7° C wolkig
Mo, 22.04. 20:00 18.0° C wolkig
Mo, 22.04. 14:00 22.3° C leicht bewölkt
Mo, 22.04. 8:00 7.7° C wolkenlos
Ortszeit Temperatur Wetter
Mi, 24.04. 6:00 8.7° C fast wolkenlos
Mi, 24.04. 5:50 8.7° C fast wolkenlos
Mi, 24.04. 5:40 8.9° C fast wolkenlos
Mi, 24.04. 5:30 9.4° C wolkenlos
Mi, 24.04. 5:20 9.4° C wolkenlos
Mi, 24.04. 5:10 9.7° C fast wolkenlos
Mi, 24.04. 5:00 10.2° C leicht bewölkt
Mi, 24.04. 4:30 10.8° C wolkig
Mi, 24.04. 4:00 11.2° C bedeckt
Mi, 24.04. 3:30 11.3° C bewölkt
Mi, 24.04. 3:00 11.7° C bewölkt
Ortszeit Relative Feuchte Sichtweite
Mi, 24.04. 2:00 62% >70 km
Di, 23.04. 20:00 52% 55 km
Di, 23.04. 14:00 38% 30 km
Di, 23.04. 8:00 67% 60 km
Di, 23.04. 2:00 64% 50 km
Mo, 22.04. 20:00 33% 55 km
Mo, 22.04. 14:00 27% >70 km
Mo, 22.04. 8:00 62% 50 km
Ortszeit Relative Feuchte Sichtweite
Mi, 24.04. 6:00 79% 65 km
Mi, 24.04. 5:50 79% -
Mi, 24.04. 5:40 78% -
Mi, 24.04. 5:30 76% 60 km
Mi, 24.04. 5:20 76% -
Mi, 24.04. 5:10 75% -
Mi, 24.04. 5:00 73% >70 km
Mi, 24.04. 4:30 70% >70 km
Mi, 24.04. 4:00 67% >70 km
Mi, 24.04. 3:30 67% >70 km
Mi, 24.04. 3:00 65% >70 km
Ortszeit Niederschlagsmenge Niederschlagsart
Mi, 24.04. 2:00 0.1 l/m2 in 6 Std. Regen
Di, 23.04. 20:00 0.1 l/m2 in 12 Std. Regen
Di, 23.04. 14:00 0.0 l/m2 in 6 Std. -
Di, 23.04. 8:00 0.0 l/m2 in 12 Std. -
Di, 23.04. 2:00 0.0 l/m2 in 6 Std. -
Mo, 22.04. 20:00 0.0 l/m2 in 12 Std. -
Mo, 22.04. 14:00 0.0 l/m2 in 6 Std. -
Mo, 22.04. 8:00 0.0 l/m2 in 12 Std. -
Ortszeit Niederschlagsmenge Niederschlagsart
Mi, 24.04. 6:00 0.0 l/m2 in 1 Std. -
Mi, 24.04. 5:50 keine Meldung -
Mi, 24.04. 5:40 keine Meldung -
Mi, 24.04. 5:30 0.0 l/m2 in 1 Std. -
Mi, 24.04. 5:20 keine Meldung -
Mi, 24.04. 5:10 keine Meldung -
Mi, 24.04. 5:00 0.0 l/m2 in 1 Std. -
Mi, 24.04. 4:30 0.0 l/m2 in 1 Std. -
Mi, 24.04. 4:00 0.0 l/m2 in 1 Std. -
Mi, 24.04. 3:30 0.0 l/m2 in 1 Std. -
Mi, 24.04. 3:00 0.0 l/m2 in 1 Std. -
Ortszeit Stärke Spitze Richtung
km/h Bft. km/h Grad Sektor
Mi, 24.04. 2:00 11 2 46 130° SO
Di, 23.04. 20:00 18 3 50 120° SO
Di, 23.04. 14:00 15 3 44 110° O
Di, 23.04. 8:00 9 2 19 30° NO
Di, 23.04. 2:00 6 1 39 20° N
Mo, 22.04. 20:00 22 4 47 50° NO
Mo, 22.04. 14:00 13 3 33 30° NO
Mo, 22.04. 8:00 9 2 19 340° N
Ortszeit Stärke Spitze Richtung
km/h Bft. km/h Grad Sektor
Mi, 24.04. 6:00 2 1 6 340° N
Mi, 24.04. 5:50 2 1 - 340° N
Mi, 24.04. 5:40 4 1 - 360° N
Mi, 24.04. 5:30 4 1 7 310° NW
Mi, 24.04. 5:20 4 1 - 310° NW
Mi, 24.04. 5:10 2 1 - 280° W
Mi, 24.04. 5:00 4 1 18 220° SW
Mi, 24.04. 4:30 7 2 18 150° SO
Mi, 24.04. 4:00 9 2 20 140° SO
Mi, 24.04. 3:30 7 2 20 140° SO
Mi, 24.04. 3:00 9 2 24 140° SO
Ortszeit Untergrenze Bedeckung Gattung
total tief tief mittel hoch
Mi, 24.04. 2:00 6300 m 8/8 8/8 - - -
Di, 23.04. 20:00 2100 m 8/8 7/8 - - -
Di, 23.04. 14:00 6600 m 8/8 8/8 - - -
Di, 23.04. 8:00 8700 m 8/8 0/8 - - -
Di, 23.04. 2:00 8700 m 8/8 0/8 - - -
Mo, 22.04. 20:00 8100 m 8/8 0/8 - - -
Mo, 22.04. 14:00 9000 m 8/8 0/8 - - -
Mo, 22.04. 8:00 - 0/8 0/8 - - -
Ortszeit Bedeckungsgrad in Achtel und Wolkenuntergrenze
Mi, 24.04. 6:00 2(9000m)
Mi, 24.04. 5:50 2(9000m)
Mi, 24.04. 5:40 2(9000m)
Mi, 24.04. 5:30 2(9000m)
Mi, 24.04. 5:20 keine Wolken
Mi, 24.04. 5:10 1(7200m)
Mi, 24.04. 5:00 5(7200m)
Mi, 24.04. 4:30 3(4200m) 4(6900m) 7(9000m)
Mi, 24.04. 4:00 8(3900m) 8(6900m) 8(9000m)
Mi, 24.04. 3:30 6(3900m) 7(6900m)
Mi, 24.04. 3:00 5(3600m) 7(6600m)
Ortszeit Luftdruck NN (hPa) Tendenz (hPa in 3 Std.)
Mi, 24.04. 2:00 1003 + 0,4
Di, 23.04. 20:00 1002 + 0,8
Di, 23.04. 14:00 1001 - 0,6
Di, 23.04. 8:00 1003 - 0,3
Di, 23.04. 2:00 1005 - 2,0
Mo, 22.04. 20:00 1006 - 0,7
Mo, 22.04. 14:00 1008 - 2,5
Mo, 22.04. 8:00 1014 - 0,9
Ortszeit Luftdruck NN (hPa) Tendenz (hPa in 3 Std.)
Mi, 24.04. 6:00 1005 + 0,9
Mi, 24.04. 5:50 1005 keine Meldung
Mi, 24.04. 5:40 1004 keine Meldung
Mi, 24.04. 5:30 1004 + 0,6
Mi, 24.04. 5:20 1004 keine Meldung
Mi, 24.04. 5:10 1004 keine Meldung
Mi, 24.04. 5:00 1004 + 0,5
Mi, 24.04. 4:30 1004 + 0,4
Mi, 24.04. 4:00 1004 + 0,2
Mi, 24.04. 3:30 1003 + 0,5
Mi, 24.04. 3:00 1003 + 0,4
Ortszeit Schneehöhe (cm)
Mi, 24.04. 2:00 0
Di, 23.04. 20:00 0
Di, 23.04. 14:00 0
Di, 23.04. 8:00 0
Di, 23.04. 2:00 0
Mo, 22.04. 20:00 0
Mo, 22.04. 14:00 0
Mo, 22.04. 8:00 0
Ortszeit Schneehöhe (cm)
Mi, 24.04. 6:00 0
Mi, 24.04. 5:50 0
Mi, 24.04. 5:40 0
Mi, 24.04. 5:30 0
Mi, 24.04. 5:20 0
Mi, 24.04. 5:10 0
Mi, 24.04. 5:00 0
Mi, 24.04. 4:30 0
Mi, 24.04. 4:00 0
Mi, 24.04. 3:30 0
Mi, 24.04. 3:00 0
Link zu dieser Seite / Seite empfehlen

Das Wetter in ...